Time;durP1;ratioP1;P1;durP2;ratioP2;P2;SDS_P1;SDS_P2;PMS_P1;PMS_P2;Temp;Humidity;BMP_temperature;BMP_pressure;BME280_temperature;BME280_humidity;BME280_pressure;Samples;Min_cycle;Max_cycle;Signal;HPM_P1;HPM_P2
2023/04/04 00:00:14;;;;;;;45.43;23.30;;;;;;;-141.97;100.00;47617.09;4898836;29;20167;-88
2023/04/04 00:02:39;;;;;;;42.90;22.57;;;;;;;-141.97;100.00;47697.84;4889752;29;20217;-88
2023/04/04 00:05:06;;;;;;;41.03;21.50;;;;;;;-141.97;100.00;47776.63;4912081;29;20190;-88
2023/04/04 00:07:32;;;;;;;42.33;22.17;;;;;;;-141.97;100.00;47793.94;4914412;29;20173;-89
2023/04/04 00:09:57;;;;;;;46.83;22.83;;;;;;;-141.97;100.00;47686.31;4903707;29;20703;-88
2023/04/04 00:12:23;;;;;;;44.97;23.73;;;;;;;-141.97;100.00;47815.09;4914557;29;20575;-88
2023/04/04 00:14:49;;;;;;;42.60;23.40;;;;;;;-141.97;100.00;47811.25;4916538;29;20166;-87
2023/04/04 00:17:15;;;;;;;41.93;23.50;;;;;;;-141.97;100.00;47665.16;4900348;29;20731;-87
2023/04/04 00:19:41;;;;;;;44.40;23.07;;;;;;;-141.97;100.00;47711.28;4899289;29;20308;-87
2023/04/04 00:22:07;;;;;;;43.23;22.97;;;;;;;-141.97;100.00;47636.31;4916536;29;20194;-87
2023/04/04 00:24:33;;;;;;;44.13;22.63;;;;;;;-141.97;100.00;47738.19;4916133;29;20166;-87
2023/04/04 00:26:58;;;;;;;38.90;21.50;;;;;;;-141.97;100.00;47561.38;4914901;29;20253;-88
2023/04/04 00:29:24;;;;;;;41.80;21.77;;;;;;;-141.97;100.00;47578.66;4916171;29;20189;-87
2023/04/04 00:31:49;;;;;;;41.40;21.70;;;;;;;-141.97;100.00;47751.66;4899556;29;20329;-88
2023/04/04 00:34:14;;;;;;;43.00;22.20;;;;;;;-141.97;100.00;47838.16;4898907;29;20583;-88
2023/04/04 00:36:40;;;;;;;41.07;22.07;;;;;;;-141.97;100.00;47690.16;4916704;29;20171;-88
2023/04/04 00:39:06;;;;;;;41.30;22.10;;;;;;;-141.97;100.00;47590.19;4925852;29;20301;-87
2023/04/04 00:41:31;;;;;;;45.03;22.03;;;;;;;-141.97;100.00;47788.19;4924621;29;20174;-88
2023/04/04 00:43:57;;;;;;;38.93;21.47;;;;;;;-141.97;100.00;47728.59;4918440;29;20257;-87
2023/04/04 00:46:24;;;;;;;43.83;22.57;;;;;;;-141.97;100.00;47717.06;4917080;29;20177;-87
2023/04/04 00:48:50;;;;;;;46.20;23.33;;;;;;;-141.97;100.00;47803.56;4920373;29;20158;-88
2023/04/04 00:51:15;;;;;;;43.53;23.00;;;;;;;-141.97;100.00;47688.22;4903323;29;20174;-88
2023/04/04 00:53:45;;;;;;;41.00;21.70;;;;;;;-141.97;100.00;47690.16;4918331;29;20341;-90
2023/04/04 00:56:11;;;;;;;39.57;21.97;;;;;;;-141.97;100.00;47682.47;4923748;29;20177;-86
2023/04/04 00:58:37;;;;;;;45.93;22.30;;;;;;;-141.97;100.00;47805.47;4927022;29;20198;-87
2023/04/04 01:01:03;;;;;;;42.13;22.63;;;;;;;-141.97;100.00;47607.50;4917978;29;20177;-87
2023/04/04 01:03:29;;;;;;;41.67;22.90;;;;;;;-141.97;100.00;47805.47;4923581;29;20211;-87
2023/04/04 01:05:55;;;;;;;41.20;21.83;;;;;;;-141.97;100.00;47617.09;4940289;29;20150;-87
2023/04/04 01:08:24;;;;;;;42.30;22.90;;;;;;;-141.97;100.00;47619.03;4942547;29;20237;-88
2023/04/04 01:10:50;;;;;;;39.70;21.67;;;;;;;-141.97;100.00;47630.56;4922523;29;20186;-86
2023/04/04 01:13:15;;;;;;;46.27;22.10;;;;;;;-141.97;100.00;47692.06;4904526;29;20178;-88
2023/04/04 01:15:41;;;;;;;41.47;22.83;;;;;;;-141.97;100.00;47642.09;4919105;29;20177;-88
2023/04/04 01:18:08;;;;;;;41.83;22.23;;;;;;;-141.97;100.00;47718.97;4918847;29;20346;-89
2023/04/04 01:20:39;;;;;;;45.93;24.30;;;;;;;-141.97;100.00;47711.28;4918070;29;20706;-88
2023/04/04 01:23:05;;;;;;;46.13;24.33;;;;;;;-141.97;100.00;47578.66;4918114;29;20174;-88
2023/04/04 01:25:31;;;;;;;45.60;23.30;;;;;;;-141.97;100.00;47701.69;4918195;29;20166;-88
2023/04/04 01:28:00;;;;;;;43.17;23.00;;;;;;;-141.97;100.00;47778.56;4900706;29;20201;-89
2023/04/04 01:30:34;;;;;;;45.53;23.60;;;;;;;-141.97;100.00;47713.22;4918034;29;20233;-88
2023/04/04 01:33:44;;;;;;;43.97;22.67;;;;;;;-141.97;100.00;47680.53;4925791;29;20170;-87
2023/04/04 01:36:46;;;;;;;39.13;21.07;;;;;;;-141.97;100.00;47649.78;4826450;29;20178;-88
2023/04/04 01:39:21;;;;;;;42.57;23.07;;;;;;;-141.97;100.00;47676.69;4734446;30;20230;-87
2023/04/04 01:41:47;;;;;;;42.30;22.37;;;;;;;-141.97;100.00;47615.19;4733978;30;20183;-88
2023/04/04 01:44:14;;;;;;;43.63;22.00;;;;;;;-141.97;100.00;47830.47;4733833;30;20263;-88
2023/04/04 01:46:40;;;;;;;43.27;23.07;;;;;;;-141.97;100.00;47655.53;4733908;30;20248;-88
2023/04/04 01:49:05;;;;;;;42.90;22.50;;;;;;;-141.97;100.00;47590.19;4718804;30;20718;-89
2023/04/04 01:51:32;;;;;;;43.63;23.90;;;;;;;-141.97;100.00;47684.38;4735830;30;20200;-88
2023/04/04 01:53:57;;;;;;;46.60;24.07;;;;;;;-141.97;100.00;47780.47;4734577;30;20635;-88
2023/04/04 01:56:22;;;;;;;46.47;24.87;;;;;;;-141.97;100.00;47649.78;4735372;30;20262;-90
2023/04/04 01:58:48;;;;;;;50.67;25.43;;;;;;;-141.97;100.00;47703.59;4732734;30;20196;-87
2023/04/04 02:01:13;;;;;;;49.97;25.37;;;;;;;-141.97;100.00;47686.31;4733684;30;20654;-88
2023/04/04 02:03:38;;;;;;;51.30;25.57;;;;;;;-141.97;100.00;47667.06;4733267;30;20227;-87
2023/04/04 02:06:04;;;;;;;51.30;26.93;;;;;;;-141.97;100.00;47615.19;4732913;30;20176;-88
2023/04/04 02:08:29;;;;;;;49.83;25.40;;;;;;;-141.97;100.00;47682.47;4732981;30;20197;-87
2023/04/04 02:10:59;;;;;;;48.33;25.33;;;;;;;-141.97;100.00;47649.78;4807640;29;20228;-87
2023/04/04 02:13:24;;;;;;;49.83;25.63;;;;;;;-141.97;100.00;47601.72;4822183;29;20294;-88
2023/04/04 02:15:50;;;;;;;51.03;25.33;;;;;;;-141.97;100.00;47690.16;4863987;29;20186;-87
2023/04/04 02:18:15;;;;;;;50.57;25.67;;;;;;;-141.97;100.00;47720.91;4917154;29;20267;-88
2023/04/04 02:20:41;;;;;;;46.43;24.90;;;;;;;-141.97;100.00;47638.25;4899776;29;20233;-88
2023/04/04 02:23:06;;;;;;;45.90;22.90;;;;;;;-141.97;100.00;47647.84;4917044;29;20585;-88
2023/04/04 02:25:32;;;;;;;46.23;23.87;;;;;;;-141.97;100.00;47761.25;4899963;29;20174;-87
2023/04/04 02:27:57;;;;;;;47.30;23.27;;;;;;;-141.97;100.00;47688.22;4915419;29;20185;-87
2023/04/04 02:30:23;;;;;;;49.33;23.00;;;;;;;-141.97;100.00;47799.72;4926843;29;20174;-88
2023/04/04 02:32:49;;;;;;;43.03;22.53;;;;;;;-141.97;100.00;47622.88;4922971;29;20170;-87
2023/04/04 02:35:15;;;;;;;41.23;21.80;;;;;;;-141.97;100.00;47636.31;4917442;29;20225;-89
2023/04/04 02:37:46;;;;;;;41.83;23.27;;;;;;;-141.97;100.00;47768.94;4916584;29;20197;-87
2023/04/04 02:40:12;;;;;;;39.73;22.00;;;;;;;-141.97;100.00;47626.72;4916864;29;20568;-88
2023/04/04 02:42:41;;;;;;;43.07;22.33;;;;;;;-141.97;100.00;47622.88;4900376;29;20176;-88
2023/04/04 02:45:08;;;;;;;41.13;21.90;;;;;;;-141.97;100.00;47815.09;4915480;29;20242;-87
2023/04/04 02:47:33;;;;;;;35.07;19.77;;;;;;;-141.97;100.00;47720.91;4916627;29;20170;-87
2023/04/04 02:49:58;;;;;;;35.97;19.77;;;;;;;-141.97;100.00;47726.66;4916716;29;20254;-88
2023/04/04 02:52:24;;;;;;;35.00;19.63;;;;;;;-141.97;100.00;47611.34;4916948;29;20173;-88
2023/04/04 02:54:49;;;;;;;36.40;19.13;;;;;;;-141.97;100.00;47692.06;4899845;29;20264;-89
2023/04/04 02:57:15;;;;;;;32.23;18.00;;;;;;;-141.97;100.00;47663.22;4913674;29;20177;-88
2023/04/04 02:59:40;;;;;;;36.70;19.60;;;;;;;-141.97;100.00;47765.09;4917829;29;20178;-89
2023/04/04 03:02:06;;;;;;;36.70;18.53;;;;;;;-141.97;100.00;47834.31;4916288;29;20162;-89
2023/04/04 03:04:31;;;;;;;35.70;18.10;;;;;;;-141.97;100.00;47661.31;4916202;29;20242;-88
2023/04/04 03:06:57;;;;;;;35.37;19.00;;;;;;;-141.97;100.00;47772.78;4899430;29;20170;-88
2023/04/04 03:09:22;;;;;;;37.33;19.70;;;;;;;-141.97;100.00;47634.41;4916167;29;20561;-87
2023/04/04 03:11:50;;;;;;;33.00;17.83;;;;;;;-141.97;100.00;47776.63;4899027;29;20176;-88
2023/04/04 03:14:15;;;;;;;33.53;18.67;;;;;;;-141.97;100.00;47807.41;4899345;29;20537;-88
2023/04/04 03:16:41;;;;;;;34.03;19.00;;;;;;;-141.97;100.00;47790.09;4899343;29;20181;-88
2023/04/04 03:19:06;;;;;;;37.10;19.53;;;;;;;-141.97;100.00;47818.94;4915951;29;20254;-88
2023/04/04 03:21:32;;;;;;;40.77;20.13;;;;;;;-141.97;100.00;47730.50;4916016;29;20280;-87
2023/04/04 03:23:57;;;;;;;38.43;20.70;;;;;;;-141.97;100.00;47636.31;4898924;29;20280;-86
2023/04/04 03:26:23;;;;;;;41.27;21.30;;;;;;;-141.97;100.00;47676.69;4916803;29;20254;-88
2023/04/04 03:28:48;;;;;;;42.07;21.53;;;;;;;-141.97;100.00;47751.66;4939008;29;20150;-89
2023/04/04 03:31:14;;;;;;;40.63;21.57;;;;;;;-141.97;100.00;47713.22;4940102;29;20154;-90
2023/04/04 03:33:41;;;;;;;42.97;21.10;;;;;;;-141.97;100.00;47619.03;4932057;29;20178;-88
2023/04/04 03:36:13;;;;;;;38.93;20.63;;;;;;;-141.97;100.00;47767.03;4916645;29;20565;-88
2023/04/04 03:38:38;;;;;;;39.70;21.43;;;;;;;-141.97;100.00;47784.34;4915620;29;20776;-89
2023/04/04 03:41:04;;;;;;;39.10;21.77;;;;;;;-141.97;100.00;47732.44;4915924;29;20252;-89
2023/04/04 03:43:31;;;;;;;41.30;22.40;;;;;;;-141.97;100.00;47517.16;4899034;29;20269;-89
2023/04/04 03:46:00;;;;;;;38.00;21.50;;;;;;;-141.97;100.00;47747.81;4922410;29;20170;-89
2023/04/04 03:48:26;;;;;;;42.77;22.87;;;;;;;-141.97;100.00;47567.13;4930074;29;20256;-89
2023/04/04 03:50:51;;;;;;;43.00;22.97;;;;;;;-141.97;100.00;47684.38;4910327;29;20237;-88
2023/04/04 03:53:17;;;;;;;45.03;24.17;;;;;;;-141.97;100.00;47634.41;4899861;29;20178;-88
2023/04/04 03:55:42;;;;;;;41.57;21.93;;;;;;;-141.97;100.00;47793.94;4915862;29;20600;-88
2023/04/04 03:58:08;;;;;;;41.70;22.93;;;;;;;-141.97;100.00;47565.22;4915733;29;20593;-89
2023/04/04 04:00:33;;;;;;;40.67;22.53;;;;;;;-141.97;100.00;47619.03;4916298;29;20264;-88
2023/04/04 04:02:59;;;;;;;42.77;23.67;;;;;;;-141.97;100.00;47615.19;4916236;29;20226;-89
2023/04/04 04:05:24;;;;;;;44.73;23.23;;;;;;;-141.97;100.00;47753.56;4916635;29;20165;-88
2023/04/04 04:07:51;;;;;;;41.87;23.37;;;;;;;-141.97;100.00;47776.63;4922492;29;20560;-88
2023/04/04 04:10:17;;;;;;;43.63;24.37;;;;;;;-141.97;100.00;47822.78;4920468;29;20173;-88
2023/04/04 04:12:42;;;;;;;47.80;26.07;;;;;;;-141.97;100.00;47715.13;4899686;29;20177;-88
2023/04/04 04:15:08;;;;;;;44.47;24.30;;;;;;;-141.97;100.00;47755.50;4899794;29;20178;-88
2023/04/04 04:17:33;;;;;;;45.33;25.27;;;;;;;-141.97;100.00;47795.88;4891694;29;20769;-88
2023/04/04 04:19:59;;;;;;;48.50;26.90;;;;;;;-141.97;100.00;47738.19;4900759;29;20293;-86
2023/04/04 04:22:24;;;;;;;46.23;26.30;;;;;;;-141.97;100.00;47586.34;4916723;29;20174;-87
2023/04/04 04:24:50;;;;;;;49.83;27.17;;;;;;;-141.97;100.00;47626.72;4919882;29;20178;-89
2023/04/04 04:27:15;;;;;;;46.27;24.80;;;;;;;-141.97;100.00;47647.84;4920119;29;20185;-90
2023/04/04 04:29:40;;;;;;;43.90;24.00;;;;;;;-141.97;100.00;47828.53;4921132;29;20232;-89
2023/04/04 04:32:06;;;;;;;51.97;30.43;;;;;;;-141.97;100.00;47597.88;4922523;29;20209;-88
2023/04/04 04:34:31;;;;;;;42.07;22.17;;;;;;;-141.97;100.00;47842.00;4900550;29;20216;-88
2023/04/04 04:36:57;;;;;;;45.17;24.67;;;;;;;-141.97;100.00;47705.53;4888495;29;20197;-90
2023/04/04 04:39:22;;;;;;;40.53;21.70;;;;;;;-141.97;100.00;47634.41;4918907;29;20186;-88
2023/04/04 04:41:47;;;;;;;43.87;23.30;;;;;;;-141.97;100.00;47705.53;4901900;29;20714;-89
2023/04/04 04:44:13;;;;;;;44.87;24.47;;;;;;;-141.97;100.00;47734.34;4919713;29;20284;-89
2023/04/04 04:46:38;;;;;;;43.70;25.97;;;;;;;-141.97;100.00;47634.41;4903755;29;20225;-89
2023/04/04 04:49:04;;;;;;;41.70;23.33;;;;;;;-141.97;100.00;47803.56;4919423;29;20154;-88
2023/04/04 04:51:29;;;;;;;47.20;27.03;;;;;;;-141.97;100.00;47653.63;4919685;29;20182;-89
2023/04/04 04:53:55;;;;;;;40.20;22.13;;;;;;;-141.97;100.00;47734.34;4903028;29;20227;-89
2023/04/04 04:56:20;;;;;;;41.00;23.33;;;;;;;-141.97;100.00;47795.88;4922842;29;20233;-88
2023/04/04 04:58:47;;;;;;;36.60;20.63;;;;;;;-141.97;100.00;47692.06;4926489;29;20314;-88
2023/04/04 05:01:13;;;;;;;36.63;21.20;;;;;;;-141.97;100.00;47720.91;4904047;29;20174;-87
2023/04/04 05:03:38;;;;;;;37.13;21.10;;;;;;;-141.97;100.00;47842.00;4920427;29;20558;-88
2023/04/04 05:06:04;;;;;;;36.97;21.67;;;;;;;-141.97;100.00;47692.06;4917314;29;20234;-86
2023/04/04 05:08:29;;;;;;;35.77;21.10;;;;;;;-141.97;100.00;47836.22;4886162;29;20179;-87
2023/04/04 05:10:55;;;;;;;36.10;21.33;;;;;;;-141.97;100.00;47718.97;4884915;29;20175;-87
2023/04/04 05:13:20;;;;;;;37.13;20.83;;;;;;;-141.97;100.00;47707.44;4901905;29;20553;-87
2023/04/04 05:15:46;;;;;;;38.43;21.33;;;;;;;-141.97;100.00;47619.03;4917390;29;20695;-87
2023/04/04 05:18:12;;;;;;;40.77;22.60;;;;;;;-141.97;100.00;47784.34;4892590;29;20275;-87
2023/04/04 05:20:37;;;;;;;36.37;21.47;;;;;;;-141.97;100.00;47784.34;4901726;29;20237;-87
2023/04/04 05:23:02;;;;;;;37.97;22.50;;;;;;;-141.97;100.00;47632.47;4918371;29;20642;-88
2023/04/04 05:25:28;;;;;;;40.47;22.50;;;;;;;-141.97;100.00;47603.66;4917828;29;20170;-88
2023/04/04 05:27:54;;;;;;;39.97;23.60;;;;;;;-141.97;100.00;47570.97;4918145;29;20173;-90
2023/04/04 05:30:20;;;;;;;40.40;23.57;;;;;;;-141.97;100.00;47726.66;4917534;29;20209;-88
2023/04/04 05:32:45;;;;;;;37.40;21.90;;;;;;;-141.97;100.00;47803.56;4901173;29;20232;-90
2023/04/04 05:35:11;;;;;;;34.33;21.07;;;;;;;-141.97;100.00;47717.06;4901019;29;20193;-92
2023/04/04 05:37:40;;;;;;;36.50;21.87;;;;;;;-141.97;100.00;47540.22;4920326;29;20190;-93
2023/04/04 05:40:07;;;;;;;35.07;20.77;;;;;;;-141.97;100.00;47717.06;4905219;29;20249;-93
2023/04/04 05:42:32;;;;;;;33.30;19.83;;;;;;;-141.97;100.00;47686.31;4904671;29;20190;-93
2023/04/04 05:44:58;;;;;;;30.73;18.10;;;;;;;-141.97;100.00;47620.94;4907074;29;20186;-94
2023/04/04 05:47:23;;;;;;;30.83;19.20;;;;;;;-141.97;100.00;47780.47;4905534;29;20213;-93
2023/04/04 05:49:48;;;;;;;31.63;19.07;;;;;;;-141.97;100.00;47717.06;4922963;29;20177;-92
2023/04/04 05:54:50;;;;;;;30.17;18.10;;;;;;;-141.97;100.00;47471.03;5524846;23;22182;-90
2023/04/04 05:57:16;;;;;;;28.37;18.00;;;;;;;-141.97;100.00;47609.41;4973851;23;20316;-93
2023/04/04 05:59:41;;;;;;;27.67;18.23;;;;;;;-141.97;100.00;47715.13;4933145;29;20215;-92
2023/04/04 06:02:07;;;;;;;30.33;18.70;;;;;;;-141.97;100.00;47747.81;4921991;29;20534;-91
2023/04/04 06:04:32;;;;;;;29.17;17.97;;;;;;;-141.97;100.00;47546.00;4921566;29;20177;-89
2023/04/04 06:06:58;;;;;;;31.27;19.37;;;;;;;-141.97;100.00;47503.69;4920693;29;20177;-90
2023/04/04 06:09:24;;;;;;;29.87;20.10;;;;;;;-141.97;100.00;47534.44;4919331;29;20206;-90
2023/04/04 06:11:49;;;;;;;33.80;21.60;;;;;;;-141.97;100.00;47603.66;4917262;29;20178;-90
2023/04/04 06:14:15;;;;;;;30.63;19.17;;;;;;;-141.97;100.00;47763.19;4902387;29;20535;-92
2023/04/04 06:16:40;;;;;;;28.37;18.47;;;;;;;-141.97;100.00;47780.47;4901621;29;20174;-89
2023/04/04 06:19:06;;;;;;;30.40;18.37;;;;;;;-141.97;100.00;47784.34;4916136;29;20197;-89
2023/04/04 06:21:31;;;;;;;29.13;19.57;;;;;;;-141.97;100.00;47595.97;4940361;29;20162;-90
2023/04/04 06:23:56;;;;;;;27.63;18.47;;;;;;;-141.97;100.00;47818.94;4939261;29;20200;-90
2023/04/04 06:26:22;;;;;;;29.47;17.90;;;;;;;-141.97;100.00;47747.81;4934060;29;20169;-91
2023/04/04 06:28:48;;;;;;;27.73;17.90;;;;;;;-141.97;100.00;47597.88;4944427;29;20248;-91
2023/04/04 06:31:15;;;;;;;28.10;17.27;;;;;;;-141.97;100.00;47695.91;4944552;29;20166;-91
2023/04/04 06:33:40;;;;;;;28.10;17.17;;;;;;;-141.97;100.00;47580.59;4927167;29;20180;-91
2023/04/04 06:36:05;;;;;;;29.97;17.63;;;;;;;-141.97;100.00;47542.16;4933395;29;20260;-90
2023/04/04 06:38:32;;;;;;;26.30;17.87;;;;;;;-141.97;100.00;47542.16;4929964;29;20201;-91
2023/04/04 06:40:57;;;;;;;24.80;16.83;;;;;;;-141.97;100.00;47619.03;4933798;29;20194;-90
2023/04/04 06:43:38;;;;;;;26.83;17.10;;;;;;;-141.97;100.00;47795.88;5136074;27;20342;-90
2023/04/04 06:46:03;;;;;;;26.17;16.80;;;;;;;-141.97;100.00;47795.88;5103036;28;20192;-89
2023/04/04 06:48:29;;;;;;;26.93;16.80;;;;;;;-141.97;100.00;47526.75;5091294;28;20263;-90
2023/04/04 06:50:55;;;;;;;28.33;17.23;;;;;;;-141.97;100.00;47651.69;5090968;28;20187;-89
2023/04/04 06:53:22;;;;;;;26.23;16.53;;;;;;;-141.97;100.00;47822.78;5096141;28;20195;-89
2023/04/04 06:55:48;;;;;;;30.47;18.00;;;;;;;-141.97;100.00;47830.47;5102260;28;20200;-90
2023/04/04 06:58:13;;;;;;;27.97;18.30;;;;;;;-141.97;100.00;47692.06;5102784;28;20179;-89
2023/04/04 07:00:38;;;;;;;31.03;19.27;;;;;;;-141.97;100.00;47734.34;5091599;28;20179;-90
2023/04/04 07:03:04;;;;;;;34.80;19.87;;;;;;;-141.97;100.00;47713.22;5089977;28;20211;-90
2023/04/04 07:05:31;;;;;;;33.87;19.77;;;;;;;-141.97;100.00;47838.16;5089944;28;20168;-89
2023/04/04 07:07:56;;;;;;;34.67;19.57;;;;;;;-141.97;100.00;47594.03;5088634;28;20165;-91
2023/04/04 07:10:23;;;;;;;35.77;20.23;;;;;;;-141.97;100.00;47582.50;5096150;28;20183;-90
2023/04/04 07:12:48;;;;;;;33.17;20.10;;;;;;;-141.97;100.00;47772.78;5103409;28;20172;-91
2023/04/04 07:15:14;;;;;;;33.77;19.97;;;;;;;-141.97;100.00;47726.66;5089914;28;20525;-90
2023/04/04 07:17:40;;;;;;;32.87;19.87;;;;;;;-141.97;100.00;47613.25;5121989;28;20178;-90
2023/04/04 07:20:09;;;;;;;33.77;21.00;;;;;;;-141.97;100.00;47588.28;5087434;28;20610;-89
2023/04/04 07:22:38;;;;;;;36.47;20.23;;;;;;;-141.97;100.00;47607.50;5088626;28;20295;-90
2023/04/04 07:25:05;;;;;;;35.40;20.83;;;;;;;-141.97;100.00;47572.91;5088276;28;20180;-89
2023/04/04 07:27:30;;;;;;;35.17;20.27;;;;;;;-141.97;100.00;47672.84;5088261;28;20179;-89
2023/04/04 07:29:56;;;;;;;36.00;20.33;;;;;;;-141.97;100.00;47818.94;5088290;28;20218;-90
2023/04/04 07:32:22;;;;;;;34.50;20.50;;;;;;;-141.97;100.00;47565.22;5089930;28;20164;-90
2023/04/04 07:34:48;;;;;;;34.27;19.73;;;;;;;-141.97;100.00;47617.09;5091983;28;20233;-93
2023/04/04 07:37:14;;;;;;;32.27;19.53;;;;;;;-141.97;100.00;47843.91;5091550;28;20225;-91
2023/04/04 07:39:39;;;;;;;33.50;18.90;;;;;;;-141.97;100.00;47822.78;5124948;28;20180;-92
2023/04/04 07:42:05;;;;;;;35.03;20.03;;;;;;;-141.97;100.00;47718.97;5095225;28;20234;-90
2023/04/04 07:44:30;;;;;;;36.43;19.40;;;;;;;-141.97;100.00;47605.56;5104021;28;20160;-91
2023/04/04 07:46:56;;;;;;;36.27;20.37;;;;;;;-141.97;100.00;47792.03;5101053;28;20279;-90
2023/04/04 07:49:21;;;;;;;36.77;20.33;;;;;;;-141.97;100.00;47780.47;5087673;28;20172;-90
2023/04/04 07:51:47;;;;;;;35.90;20.30;;;;;;;-141.97;100.00;47757.41;5089258;28;20245;-91
2023/04/04 07:54:13;;;;;;;41.63;21.83;;;;;;;-141.97;100.00;47446.03;5079293;28;20196;-91
2023/04/04 07:56:39;;;;;;;45.87;22.80;;;;;;;-141.97;100.00;47482.56;5074639;28;20179;-91
2023/04/04 07:59:04;;;;;;;40.00;22.20;;;;;;;-141.97;100.00;47595.97;5074460;28;20180;-90
2023/04/04 08:01:30;;;;;;;43.43;22.00;;;;;;;-141.97;100.00;47828.53;5074484;28;20693;-91
2023/04/04 08:03:56;;;;;;;43.37;23.50;;;;;;;-141.97;100.00;47818.94;5110460;28;20554;-89
2023/04/04 08:06:21;;;;;;;43.43;23.60;;;;;;;-141.97;100.00;47653.63;5077871;28;20172;-89
2023/04/04 08:08:47;;;;;;;41.40;22.87;;;;;;;-141.97;100.00;47866.97;5076895;28;20726;-89
2023/04/04 08:11:13;;;;;;;40.93;22.83;;;;;;;-141.97;100.00;47815.09;5077505;28;20172;-91
2023/04/04 08:13:38;;;;;;;42.67;24.03;;;;;;;-141.97;100.00;47607.50;5076767;28;20173;-89
2023/04/04 08:16:04;;;;;;;45.93;24.93;;;;;;;-141.97;100.00;47861.22;5128765;22;20228;-88
2023/04/04 08:18:30;;;;;;;42.80;23.47;;;;;;;-141.97;100.00;47718.97;5094204;28;20178;-89
2023/04/04 08:20:56;;;;;;;40.67;22.70;;;;;;;-141.97;100.00;47876.59;5067397;28;20649;-88
2023/04/04 08:23:21;;;;;;;38.03;22.13;;;;;;;-141.97;100.00;47661.31;5056077;28;20699;-89
2023/04/04 08:25:47;;;;;;;40.87;21.80;;;;;;;-141.97;100.00;47732.44;5054465;28;20720;-89
2023/04/04 08:28:12;;;;;;;41.10;23.50;;;;;;;-141.97;100.00;47709.38;5056686;28;20204;-90
2023/04/04 08:30:38;;;;;;;34.83;20.83;;;;;;;-141.97;100.00;47572.91;5057145;28;20264;-89
2023/04/04 08:33:03;;;;;;;37.37;20.87;;;;;;;-141.97;100.00;47682.47;5057496;28;20169;-89
2023/04/04 08:35:29;;;;;;;33.70;19.60;;;;;;;-141.97;100.00;47674.78;5053646;28;20188;-89
2023/04/04 08:37:56;;;;;;;39.50;20.80;;;;;;;-141.97;100.00;47546.00;5057402;28;20181;-89
2023/04/04 08:40:22;;;;;;;37.47;20.60;;;;;;;-141.97;100.00;47811.25;5055654;28;20327;-89
2023/04/04 08:42:50;;;;;;;39.57;21.27;;;;;;;-141.97;100.00;47792.03;5056387;28;20201;-89
2023/04/04 08:45:20;;;;;;;39.93;20.93;;;;;;;-141.97;100.00;47803.56;5067431;28;20626;-90
2023/04/04 08:47:49;;;;;;;35.40;21.40;;;;;;;-141.97;100.00;47567.13;5055616;28;20177;-89
2023/04/04 08:50:15;;;;;;;36.97;20.77;;;;;;;-141.97;100.00;47834.31;5065800;28;20230;-89
2023/04/04 08:52:42;;;;;;;35.77;19.90;;;;;;;-141.97;100.00;47726.66;5068557;28;20191;-88
2023/04/04 08:55:08;;;;;;;33.73;19.87;;;;;;;-141.97;100.00;47665.16;5061850;28;20189;-90
2023/04/04 08:57:34;;;;;;;35.03;18.80;;;;;;;-141.97;100.00;47630.56;5056808;28;20177;-88
2023/04/04 09:00:04;;;;;;;31.27;18.20;;;;;;;-141.97;100.00;47684.38;5065850;28;20184;-89
2023/04/04 09:02:30;;;;;;;33.67;18.20;;;;;;;-141.97;100.00;47722.81;5056122;28;20632;-89
2023/04/04 09:04:57;;;;;;;33.13;18.60;;;;;;;-141.97;100.00;47792.03;5052543;28;20178;-88
2023/04/04 09:07:24;;;;;;;29.27;17.17;;;;;;;-141.97;100.00;47891.97;5052822;28;20173;-88
2023/04/04 09:09:51;;;;;;;34.30;18.40;;;;;;;-141.97;100.00;47703.59;5053286;28;20205;-89
2023/04/04 09:12:17;;;;;;;32.03;18.50;;;;;;;-141.97;100.00;47697.84;5052902;28;20169;-88
2023/04/04 09:14:45;;;;;;;29.27;18.60;;;;;;;-141.97;100.00;47686.31;5053562;28;20173;-88
2023/04/04 09:17:10;;;;;;;33.27;18.53;;;;;;;-141.97;100.00;47742.03;5035366;28;20245;-87
2023/04/04 09:19:36;;;;;;;37.73;21.53;;;;;;;-141.97;100.00;47792.03;5020479;28;20646;-87
2023/04/04 09:22:05;;;;;;;41.20;20.47;;;;;;;-141.97;100.00;47734.34;5013175;28;20565;-88
2023/04/04 09:24:39;;;;;;;36.63;20.17;;;;;;;-141.97;100.00;47676.69;5013795;28;20274;-88
2023/04/04 09:27:10;;;;;;;40.83;22.17;;;;;;;-141.97;100.00;47724.75;5011399;28;20233;-90
2023/04/04 09:29:40;;;;;;;37.23;20.30;;;;;;;-141.97;100.00;47743.97;5012191;28;20244;-88
2023/04/04 09:32:16;;;;;;;35.03;19.53;;;;;;;-141.97;100.00;47759.34;5012372;28;20265;-88
2023/04/04 09:34:45;;;;;;;32.77;19.27;;;;;;;-141.97;100.00;47772.78;5013369;28;20166;-89
2023/04/04 09:37:14;;;;;;;39.30;22.67;;;;;;;-141.97;100.00;47715.13;5012320;28;20238;-87
2023/04/04 09:39:40;;;;;;;32.67;19.50;;;;;;;-141.97;100.00;47599.81;5012085;28;20187;-89
2023/04/04 09:42:06;;;;;;;38.30;20.50;;;;;;;-141.97;100.00;47720.91;5011616;28;20202;-88
2023/04/04 09:44:32;;;;;;;44.00;23.93;;;;;;;-141.97;100.00;47653.63;5012989;28;20229;-88
2023/04/04 09:47:29;;;;;;;35.67;20.00;;;;;;;-141.97;100.00;47715.13;5011569;28;20635;-89
2023/04/04 09:50:02;;;;;;;35.00;20.70;;;;;;;-141.97;100.00;47657.47;4984561;28;20195;-87
2023/04/04 09:52:32;;;;;;;36.63;21.70;;;;;;;-141.97;100.00;47749.72;4976004;28;20540;-88
2023/04/04 09:54:59;;;;;;;31.87;18.17;;;;;;;-141.97;100.00;47728.59;4992338;28;20191;-90
2023/04/04 09:57:29;;;;;;;29.00;18.10;;;;;;;-141.97;100.00;47709.38;4991838;28;20183;-90
2023/04/04 10:00:18;;;;;;;33.13;19.50;;;;;;;-141.97;100.00;47751.66;4991490;28;20192;-90
2023/04/04 10:02:48;;;;;;;32.27;18.10;;;;;;;-141.97;100.00;47749.72;4997528;28;20262;-88
2023/04/04 10:05:14;;;;;;;60.17;30.77;;;;;;;-141.97;100.00;47742.03;5007401;28;20183;-89
2023/04/04 10:07:42;;;;;;;32.33;18.27;;;;;;;-141.97;100.00;47726.66;5015241;28;20196;-89
2023/04/04 10:10:09;;;;;;;63.37;34.60;;;;;;;-141.97;100.00;47676.69;4988144;28;20185;-89
2023/04/04 10:12:37;;;;;;;38.43;21.97;;;;;;;-141.97;100.00;47699.75;4974290;28;20191;-89
2023/04/04 10:15:03;;;;;;;34.63;18.70;;;;;;;-141.97;100.00;47682.47;4990880;28;20168;-89
2023/04/04 10:17:30;;;;;;;45.10;27.17;;;;;;;-141.97;100.00;47761.25;4964976;28;20243;-91
2023/04/04 10:20:00;;;;;;;37.07;21.63;;;;;;;-141.97;100.00;47622.88;4991080;28;20667;-89
2023/04/04 10:22:25;;;;;;;36.07;20.50;;;;;;;-141.97;100.00;47720.91;4992751;28;20203;-89
2023/04/04 10:24:52;;;;;;;30.23;18.77;;;;;;;-141.97;100.00;47667.06;5012456;28;20175;-87
2023/04/04 10:27:19;;;;;;;30.63;19.47;;;;;;;-141.97;100.00;47582.50;5033290;28;20186;-89
2023/04/04 10:29:45;;;;;;;27.33;17.23;;;;;;;-141.97;100.00;47730.50;5033115;28;20178;-88
2023/04/04 10:32:20;;;;;;;27.43;16.97;;;;;;;-141.97;100.00;47665.16;5031980;28;20267;-91
2023/04/04 10:35:03;;;;;;;24.70;15.93;;;;;;;-141.97;100.00;47569.06;5031884;28;20189;-89
2023/04/04 10:37:34;;;;;;;30.20;19.07;;;;;;;-141.97;100.00;47630.56;5035232;28;20190;-89
2023/04/04 10:40:09;;;;;;;33.90;19.90;;;;;;;-141.97;100.00;47863.13;5052247;28;20186;-89
2023/04/04 10:42:43;;;;;;;24.10;15.53;;;;;;;-141.97;100.00;47676.69;5055456;28;20211;-88
2023/04/04 10:45:09;;;;;;;27.47;16.47;;;;;;;-141.97;100.00;47763.19;5041593;28;20181;-88
2023/04/04 10:47:36;;;;;;;27.50;17.73;;;;;;;-141.97;100.00;47651.69;5037410;28;20169;-90
2023/04/04 10:50:06;;;;;;;37.97;20.83;;;;;;;-141.97;100.00;47630.56;5035915;28;20194;-88
2023/04/04 10:52:33;;;;;;;30.93;18.70;;;;;;;-141.97;100.00;47768.94;5037271;28;20174;-89
2023/04/04 10:55:05;;;;;;;38.13;21.40;;;;;;;-141.97;100.00;47676.69;5034817;28;20174;-88